עמוד ראשי
METAR-TAF:

METAR-TAF

שדות תעופה :

ארקיפה, פרו

קו רוחב: 16-19S, קו אורך: 071-33W, גובה: 2538מטר

תצפית מזג אוויר נוכחית

הדו"ח נערך לפני 1 שעות ו 8דקות, בשעה 18:00 UTC
רוח 11קשר מכיוון מערב/דרום-מערב, משתנה בין דרום/דרום-מערב ו מערב
טמפרטורת 22 צלסיוס
לחות 43%
לחץ 1026 hPa
ראות 10 קילומטר או יותר
מעט עננים בגובה 6000רגל

METAR: SPQU 121800Z 25011KT 210V280 9999 FEW060 22/09 Q1026 NOSIG RMK PP000

זמן: 14:08 (19:08 UTC)

תחזית

הדו"ח נערך לפני 2 שעות ו 8דקות, בשעה 17:00 UTC
תחזית בתוקף מ 12 ב 18 UTC עד 13 ב 18 UTC
רוח 10קשר מכיוון מערב
ראות 10 קילומטר או יותר
מעט עננים בגובה 5000רגל
מ 13 ב 0100UTC
רוח 2קשר עם כיוונים משתנים
ראות 10 קילומטר או יותר
ללא עננים שבסיסם נמוך מ 5000 רגל או קומולונימבוס
מ 13 ב 1430UTC
רוח 5קשר מכיוון מערב/דרום-מערב
ראות 10 קילומטר או יותר
מעט עננים בגובה 10000רגל

TAF: SPQU 121700Z 1218/1318 27010KT 9999 FEW050 TX23/1219Z TN10/1311Z FM130100 VRB02KT CAVOK FM131430 24005KT 9999 FEW100

תצפיות ותחזיות מזג אוויר לגבי יותר מ- 4,000 שדות תעופה ברחבי העולם. דוחות METAR ו- TAF.

התחנות הזמינות מסומנות בנקודות צהובות ואדומות על גבי המפה.

העבר את העכבר לנקודה הצבעונית על מנת לראות את שם התחנה.

לאחר מכן, לחץ כדי לראות את תוכן ואת תחזיות מזג האוויר.

כדי לשנות את המפה: לחץ על הכפתורים הירוקים עם הפלוס השחור כדי להתקרב; על הכפתור הירוק עם המקף כדי להתרחק; או בחיצים הירוקים למפות סמוכות.


METAR-TAF: